sensor_id;sensor_type;location;lat;lon;timestamp;temperature;humidity
21787;DHT22;11055;50.870;4.316;2023-02-27T00:01:06;3.10;99.90
21787;DHT22;11055;50.870;4.316;2023-02-27T00:03:32;3.10;99.90
21787;DHT22;11055;50.870;4.316;2023-02-27T00:05:58;3.00;99.90
21787;DHT22;11055;50.870;4.316;2023-02-27T00:08:24;2.90;99.90
21787;DHT22;11055;50.870;4.316;2023-02-27T00:10:49;2.90;99.90
21787;DHT22;11055;50.870;4.316;2023-02-27T00:13:15;2.80;99.90
21787;DHT22;11055;50.870;4.316;2023-02-27T00:15:44;2.80;99.90
21787;DHT22;11055;50.870;4.316;2023-02-27T00:18:10;2.80;99.90
21787;DHT22;11055;50.870;4.316;2023-02-27T00:20:35;2.80;99.90
21787;DHT22;11055;50.870;4.316;2023-02-27T00:23:03;2.70;99.90
21787;DHT22;11055;50.870;4.316;2023-02-27T00:25:30;2.90;99.90
21787;DHT22;11055;50.870;4.316;2023-02-27T00:27:56;2.90;99.90
21787;DHT22;11055;50.870;4.316;2023-02-27T00:30:21;2.80;99.90
21787;DHT22;11055;50.870;4.316;2023-02-27T00:32:47;2.80;99.90
21787;DHT22;11055;50.870;4.316;2023-02-27T00:35:13;2.80;99.90
21787;DHT22;11055;50.870;4.316;2023-02-27T00:37:39;2.90;99.90
21787;DHT22;11055;50.870;4.316;2023-02-27T00:40:05;2.90;99.90
21787;DHT22;11055;50.870;4.316;2023-02-27T00:42:31;2.80;99.90
21787;DHT22;11055;50.870;4.316;2023-02-27T00:44:57;2.80;99.90
21787;DHT22;11055;50.870;4.316;2023-02-27T00:47:23;2.60;99.90
21787;DHT22;11055;50.870;4.316;2023-02-27T00:49:49;2.60;99.90
21787;DHT22;11055;50.870;4.316;2023-02-27T00:52:14;2.60;99.90
21787;DHT22;11055;50.870;4.316;2023-02-27T00:54:40;2.60;99.90
21787;DHT22;11055;50.870;4.316;2023-02-27T00:57:06;2.50;99.90
21787;DHT22;11055;50.870;4.316;2023-02-27T00:59:31;2.70;99.90
21787;DHT22;11055;50.870;4.316;2023-02-27T01:01:57;2.70;99.90
21787;DHT22;11055;50.870;4.316;2023-02-27T01:04:23;2.70;99.90
21787;DHT22;11055;50.870;4.316;2023-02-27T01:06:48;2.70;99.90
21787;DHT22;11055;50.870;4.316;2023-02-27T01:09:14;2.70;99.90
21787;DHT22;11055;50.870;4.316;2023-02-27T01:11:40;2.60;99.90
21787;DHT22;11055;50.870;4.316;2023-02-27T01:14:06;2.60;99.90
21787;DHT22;11055;50.870;4.316;2023-02-27T01:16:31;2.60;99.90
21787;DHT22;11055;50.870;4.316;2023-02-27T01:18:57;2.70;99.90
21787;DHT22;11055;50.870;4.316;2023-02-27T01:21:23;2.80;99.90
21787;DHT22;11055;50.870;4.316;2023-02-27T01:23:49;2.90;99.90
21787;DHT22;11055;50.870;4.316;2023-02-27T01:26:15;3.00;99.90
21787;DHT22;11055;50.870;4.316;2023-02-27T01:28:40;3.10;99.90
21787;DHT22;11055;50.870;4.316;2023-02-27T01:31:06;2.90;99.90
21787;DHT22;11055;50.870;4.316;2023-02-27T01:33:32;2.80;99.90
21787;DHT22;11055;50.870;4.316;2023-02-27T01:35:57;2.60;99.90
21787;DHT22;11055;50.870;4.316;2023-02-27T01:38:23;2.50;99.90
21787;DHT22;11055;50.870;4.316;2023-02-27T01:40:49;2.50;99.90
21787;DHT22;11055;50.870;4.316;2023-02-27T01:43:20;2.40;99.90
21787;DHT22;11055;50.870;4.316;2023-02-27T01:45:47;2.40;99.90
21787;DHT22;11055;50.870;4.316;2023-02-27T01:48:33;2.60;99.90
21787;DHT22;11055;50.870;4.316;2023-02-27T01:51:18;2.80;99.90
21787;DHT22;11055;50.870;4.316;2023-02-27T01:53:48;2.90;99.90
21787;DHT22;11055;50.870;4.316;2023-02-27T01:56:24;2.80;99.90
21787;DHT22;11055;50.870;4.316;2023-02-27T01:58:54;2.80;99.90
21787;DHT22;11055;50.870;4.316;2023-02-27T02:01:21;2.80;99.90
21787;DHT22;11055;50.870;4.316;2023-02-27T02:03:48;2.90;99.90
21787;DHT22;11055;50.870;4.316;2023-02-27T02:06:15;3.00;99.90
21787;DHT22;11055;50.870;4.316;2023-02-27T02:08:44;3.10;99.90
21787;DHT22;11055;50.870;4.316;2023-02-27T02:11:12;3.10;99.90
21787;DHT22;11055;50.870;4.316;2023-02-27T02:13:39;3.00;99.90
21787;DHT22;11055;50.870;4.316;2023-02-27T02:24:44;2.80;99.90
21787;DHT22;11055;50.870;4.316;2023-02-27T02:35:50;2.70;99.90
21787;DHT22;11055;50.870;4.316;2023-02-27T02:46:29;2.90;99.90
21787;DHT22;11055;50.870;4.316;2023-02-27T02:49:10;2.90;99.90
21787;DHT22;11055;50.870;4.316;2023-02-27T02:54:16;2.90;99.90
21787;DHT22;11055;50.870;4.316;2023-02-27T02:56:53;2.70;99.90
21787;DHT22;11055;50.870;4.316;2023-02-27T02:59:59;2.70;99.90
21787;DHT22;11055;50.870;4.316;2023-02-27T03:02:30;2.60;99.90
21787;DHT22;11055;50.870;4.316;2023-02-27T03:10:10;2.40;99.90
21787;DHT22;11055;50.870;4.316;2023-02-27T03:12:39;2.40;99.90
21787;DHT22;11055;50.870;4.316;2023-02-27T03:15:18;2.40;99.90
21787;DHT22;11055;50.870;4.316;2023-02-27T03:20:23;2.30;99.90
21787;DHT22;11055;50.870;4.316;2023-02-27T03:22:53;2.20;99.90
21787;DHT22;11055;50.870;4.316;2023-02-27T03:25:20;2.30;99.90
21787;DHT22;11055;50.870;4.316;2023-02-27T03:27:58;2.30;99.90
21787;DHT22;11055;50.870;4.316;2023-02-27T03:30:35;2.20;99.90
21787;DHT22;11055;50.870;4.316;2023-02-27T03:33:25;2.20;99.90
21787;DHT22;11055;50.870;4.316;2023-02-27T03:41:14;2.20;99.90
21787;DHT22;11055;50.870;4.316;2023-02-27T03:46:17;2.30;99.90
21787;DHT22;11055;50.870;4.316;2023-02-27T03:48:45;2.30;99.90
21787;DHT22;11055;50.870;4.316;2023-02-27T03:51:13;2.20;99.90
21787;DHT22;11055;50.870;4.316;2023-02-27T03:53:47;2.30;99.90
21787;DHT22;11055;50.870;4.316;2023-02-27T03:56:19;2.30;99.90
21787;DHT22;11055;50.870;4.316;2023-02-27T03:58:45;2.30;99.90
21787;DHT22;11055;50.870;4.316;2023-02-27T04:01:11;2.30;99.90
21787;DHT22;11055;50.870;4.316;2023-02-27T04:03:45;2.30;99.90
21787;DHT22;11055;50.870;4.316;2023-02-27T04:06:12;2.20;99.90
21787;DHT22;11055;50.870;4.316;2023-02-27T04:09:06;2.30;99.90
21787;DHT22;11055;50.870;4.316;2023-02-27T04:14:37;2.30;99.90
21787;DHT22;11055;50.870;4.316;2023-02-27T04:25:22;2.10;99.90
21787;DHT22;11055;50.870;4.316;2023-02-27T04:28:04;2.00;99.90
21787;DHT22;11055;50.870;4.316;2023-02-27T04:30:46;1.80;99.90
21787;DHT22;11055;50.870;4.316;2023-02-27T04:35:57;1.80;99.90
21787;DHT22;11055;50.870;4.316;2023-02-27T04:38:38;1.70;99.90
21787;DHT22;11055;50.870;4.316;2023-02-27T04:41:11;1.60;99.90
21787;DHT22;11055;50.870;4.316;2023-02-27T04:43:39;1.70;99.90
21787;DHT22;11055;50.870;4.316;2023-02-27T04:46:07;1.70;99.90
21787;DHT22;11055;50.870;4.316;2023-02-27T04:49:02;1.70;99.90
21787;DHT22;11055;50.870;4.316;2023-02-27T04:51:33;1.70;99.90
21787;DHT22;11055;50.870;4.316;2023-02-27T04:54:13;1.70;99.90
21787;DHT22;11055;50.870;4.316;2023-02-27T04:56:44;1.70;99.90
21787;DHT22;11055;50.870;4.316;2023-02-27T04:59:26;1.70;99.90
21787;DHT22;11055;50.870;4.316;2023-02-27T05:02:00;1.70;99.90
21787;DHT22;11055;50.870;4.316;2023-02-27T05:04:28;1.70;99.90
21787;DHT22;11055;50.870;4.316;2023-02-27T05:06:55;1.60;99.90
21787;DHT22;11055;50.870;4.316;2023-02-27T05:09:36;1.70;99.90
21787;DHT22;11055;50.870;4.316;2023-02-27T05:14:37;1.80;99.90
21787;DHT22;11055;50.870;4.316;2023-02-27T05:17:08;1.90;99.90
21787;DHT22;11055;50.870;4.316;2023-02-27T05:19:37;2.00;99.90
21787;DHT22;11055;50.870;4.316;2023-02-27T05:22:59;1.80;99.90
21787;DHT22;11055;50.870;4.316;2023-02-27T05:25:29;1.80;99.90
21787;DHT22;11055;50.870;4.316;2023-02-27T05:28:12;1.60;99.90
21787;DHT22;11055;50.870;4.316;2023-02-27T05:30:48;1.60;99.90
21787;DHT22;11055;50.870;4.316;2023-02-27T05:33:35;1.50;99.90
21787;DHT22;11055;50.870;4.316;2023-02-27T05:36:20;1.50;99.90
21787;DHT22;11055;50.870;4.316;2023-02-27T05:38:51;1.60;99.90
21787;DHT22;11055;50.870;4.316;2023-02-27T05:41:25;1.70;99.90
21787;DHT22;11055;50.870;4.316;2023-02-27T05:44:04;1.80;99.90
21787;DHT22;11055;50.870;4.316;2023-02-27T05:46:41;2.00;99.90
21787;DHT22;11055;50.870;4.316;2023-02-27T05:49:22;2.00;99.90
21787;DHT22;11055;50.870;4.316;2023-02-27T05:51:51;1.90;99.90
21787;DHT22;11055;50.870;4.316;2023-02-27T05:55:10;2.00;99.90
21787;DHT22;11055;50.870;4.316;2023-02-27T05:57:15;2.20;99.90
21787;DHT22;11055;50.870;4.316;2023-02-27T05:59:53;2.00;99.90
21787;DHT22;11055;50.870;4.316;2023-02-27T06:02:19;1.80;99.90
21787;DHT22;11055;50.870;4.316;2023-02-27T06:04:45;1.80;99.90
21787;DHT22;11055;50.870;4.316;2023-02-27T06:07:15;1.90;99.90
21787;DHT22;11055;50.870;4.316;2023-02-27T06:09:41;1.70;99.90
21787;DHT22;11055;50.870;4.316;2023-02-27T06:12:08;1.60;99.90
21787;DHT22;11055;50.870;4.316;2023-02-27T06:14:34;1.50;99.90
21787;DHT22;11055;50.870;4.316;2023-02-27T06:16:59;1.50;99.90
21787;DHT22;11055;50.870;4.316;2023-02-27T06:19:25;1.50;99.90
21787;DHT22;11055;50.870;4.316;2023-02-27T06:21:51;1.60;99.90
21787;DHT22;11055;50.870;4.316;2023-02-27T06:24:16;1.60;99.90
21787;DHT22;11055;50.870;4.316;2023-02-27T06:26:42;1.70;99.90
21787;DHT22;11055;50.870;4.316;2023-02-27T06:29:07;1.80;99.90
21787;DHT22;11055;50.870;4.316;2023-02-27T06:31:33;1.70;99.90
21787;DHT22;11055;50.870;4.316;2023-02-27T06:33:59;1.70;99.90
21787;DHT22;11055;50.870;4.316;2023-02-27T06:36:24;1.90;99.90
21787;DHT22;11055;50.870;4.316;2023-02-27T06:38:50;1.90;99.90
21787;DHT22;11055;50.870;4.316;2023-02-27T06:41:16;1.90;99.90
21787;DHT22;11055;50.870;4.316;2023-02-27T06:43:41;2.00;99.90
21787;DHT22;11055;50.870;4.316;2023-02-27T06:46:07;2.10;99.90
21787;DHT22;11055;50.870;4.316;2023-02-27T06:48:33;2.10;99.90
21787;DHT22;11055;50.870;4.316;2023-02-27T06:50:58;2.00;99.90
21787;DHT22;11055;50.870;4.316;2023-02-27T06:53:25;2.10;99.90
21787;DHT22;11055;50.870;4.316;2023-02-27T06:55:51;2.10;99.90
21787;DHT22;11055;50.870;4.316;2023-02-27T06:58:17;2.00;99.90
21787;DHT22;11055;50.870;4.316;2023-02-27T07:00:42;2.00;99.90
21787;DHT22;11055;50.870;4.316;2023-02-27T07:03:09;2.00;99.90
21787;DHT22;11055;50.870;4.316;2023-02-27T07:05:34;2.00;99.90
21787;DHT22;11055;50.870;4.316;2023-02-27T07:08:00;1.90;99.90
21787;DHT22;11055;50.870;4.316;2023-02-27T07:10:28;1.80;99.90
21787;DHT22;11055;50.870;4.316;2023-02-27T07:12:54;2.00;99.90
21787;DHT22;11055;50.870;4.316;2023-02-27T07:15:20;1.70;99.90
21787;DHT22;11055;50.870;4.316;2023-02-27T07:17:46;1.80;99.90
21787;DHT22;11055;50.870;4.316;2023-02-27T07:20:11;1.80;99.90
21787;DHT22;11055;50.870;4.316;2023-02-27T07:22:38;1.80;99.90
21787;DHT22;11055;50.870;4.316;2023-02-27T07:25:04;1.70;99.90
21787;DHT22;11055;50.870;4.316;2023-02-27T07:27:30;1.80;99.90
21787;DHT22;11055;50.870;4.316;2023-02-27T07:29:56;1.80;99.90
21787;DHT22;11055;50.870;4.316;2023-02-27T07:32:21;1.90;99.90
21787;DHT22;11055;50.870;4.316;2023-02-27T07:34:47;2.00;99.90
21787;DHT22;11055;50.870;4.316;2023-02-27T07:37:13;2.00;99.90
21787;DHT22;11055;50.870;4.316;2023-02-27T07:39:38;2.20;99.90
21787;DHT22;11055;50.870;4.316;2023-02-27T07:42:04;2.10;99.90
21787;DHT22;11055;50.870;4.316;2023-02-27T07:44:30;2.10;99.90
21787;DHT22;11055;50.870;4.316;2023-02-27T07:46:55;2.20;99.90
21787;DHT22;11055;50.870;4.316;2023-02-27T07:49:21;2.20;99.90
21787;DHT22;11055;50.870;4.316;2023-02-27T07:51:47;2.20;99.90
21787;DHT22;11055;50.870;4.316;2023-02-27T07:54:12;2.20;99.90
21787;DHT22;11055;50.870;4.316;2023-02-27T07:56:38;2.20;99.90
21787;DHT22;11055;50.870;4.316;2023-02-27T07:59:04;2.10;99.90
21787;DHT22;11055;50.870;4.316;2023-02-27T08:01:29;1.90;99.90
21787;DHT22;11055;50.870;4.316;2023-02-27T08:03:56;1.90;99.90
21787;DHT22;11055;50.870;4.316;2023-02-27T08:06:22;1.80;99.90
21787;DHT22;11055;50.870;4.316;2023-02-27T08:08:48;1.90;99.90
21787;DHT22;11055;50.870;4.316;2023-02-27T08:11:14;2.00;99.90
21787;DHT22;11055;50.870;4.316;2023-02-27T08:13:40;2.00;99.90
21787;DHT22;11055;50.870;4.316;2023-02-27T08:16:06;2.20;99.90
21787;DHT22;11055;50.870;4.316;2023-02-27T08:18:32;2.20;99.90
21787;DHT22;11055;50.870;4.316;2023-02-27T08:21:00;2.10;99.90
21787;DHT22;11055;50.870;4.316;2023-02-27T08:23:29;2.10;99.90
21787;DHT22;11055;50.870;4.316;2023-02-27T08:25:55;2.00;99.90
21787;DHT22;11055;50.870;4.316;2023-02-27T08:28:21;2.00;99.90
21787;DHT22;11055;50.870;4.316;2023-02-27T08:30:47;2.00;99.90
21787;DHT22;11055;50.870;4.316;2023-02-27T08:33:13;2.10;99.90
21787;DHT22;11055;50.870;4.316;2023-02-27T08:35:39;2.10;99.90
21787;DHT22;11055;50.870;4.316;2023-02-27T08:38:04;2.20;99.90
21787;DHT22;11055;50.870;4.316;2023-02-27T08:40:30;2.20;99.90
21787;DHT22;11055;50.870;4.316;2023-02-27T08:42:56;2.20;99.90
21787;DHT22;11055;50.870;4.316;2023-02-27T08:45:21;2.10;99.90
21787;DHT22;11055;50.870;4.316;2023-02-27T08:47:47;2.10;99.90
21787;DHT22;11055;50.870;4.316;2023-02-27T08:50:13;2.20;99.90
21787;DHT22;11055;50.870;4.316;2023-02-27T08:52:38;2.30;99.90
21787;DHT22;11055;50.870;4.316;2023-02-27T08:55:05;2.30;99.90
21787;DHT22;11055;50.870;4.316;2023-02-27T08:57:30;2.40;99.90
21787;DHT22;11055;50.870;4.316;2023-02-27T08:59:56;2.50;99.90
21787;DHT22;11055;50.870;4.316;2023-02-27T09:02:22;2.60;99.90
21787;DHT22;11055;50.870;4.316;2023-02-27T09:04:50;2.80;99.90
21787;DHT22;11055;50.870;4.316;2023-02-27T09:07:16;2.90;99.90
21787;DHT22;11055;50.870;4.316;2023-02-27T09:09:42;3.00;99.90
21787;DHT22;11055;50.870;4.316;2023-02-27T09:12:08;3.00;99.90
21787;DHT22;11055;50.870;4.316;2023-02-27T09:14:33;3.00;99.90
21787;DHT22;11055;50.870;4.316;2023-02-27T09:16:59;3.10;99.90
21787;DHT22;11055;50.870;4.316;2023-02-27T09:19:25;3.20;99.90
21787;DHT22;11055;50.870;4.316;2023-02-27T09:21:50;3.10;99.90
21787;DHT22;11055;50.870;4.316;2023-02-27T09:24:16;3.10;99.90
21787;DHT22;11055;50.870;4.316;2023-02-27T09:26:42;3.00;99.90
21787;DHT22;11055;50.870;4.316;2023-02-27T09:29:08;3.10;99.90
21787;DHT22;11055;50.870;4.316;2023-02-27T09:31:34;3.10;99.90
21787;DHT22;11055;50.870;4.316;2023-02-27T09:34:00;3.20;99.90
21787;DHT22;11055;50.870;4.316;2023-02-27T09:36:27;3.30;99.90
21787;DHT22;11055;50.870;4.316;2023-02-27T09:38:52;3.40;99.90
21787;DHT22;11055;50.870;4.316;2023-02-27T09:43:55;3.60;99.90
21787;DHT22;11055;50.870;4.316;2023-02-27T09:46:22;3.70;99.90
21787;DHT22;11055;50.870;4.316;2023-02-27T09:48:55;3.90;99.90
21787;DHT22;11055;50.870;4.316;2023-02-27T09:51:22;3.90;99.90
21787;DHT22;11055;50.870;4.316;2023-02-27T09:53:50;4.00;99.90
21787;DHT22;11055;50.870;4.316;2023-02-27T10:04:06;4.10;99.90
21787;DHT22;11055;50.870;4.316;2023-02-27T10:06:42;4.10;99.90
21787;DHT22;11055;50.870;4.316;2023-02-27T10:14:45;4.00;99.90
21787;DHT22;11055;50.870;4.316;2023-02-27T10:19:53;4.10;99.90
21787;DHT22;11055;50.870;4.316;2023-02-27T10:22:25;4.20;99.90
21787;DHT22;11055;50.870;4.316;2023-02-27T10:24:58;4.20;99.90
21787;DHT22;11055;50.870;4.316;2023-02-27T10:27:25;4.20;99.90
21787;DHT22;11055;50.870;4.316;2023-02-27T10:29:53;4.30;99.90
21787;DHT22;11055;50.870;4.316;2023-02-27T10:32:22;4.40;99.90
21787;DHT22;11055;50.870;4.316;2023-02-27T10:34:59;4.30;99.90
21787;DHT22;11055;50.870;4.316;2023-02-27T10:37:31;4.30;99.90
21787;DHT22;11055;50.870;4.316;2023-02-27T10:40:00;4.40;99.90
21787;DHT22;11055;50.870;4.316;2023-02-27T10:42:34;4.50;99.90
21787;DHT22;11055;50.870;4.316;2023-02-27T10:45:01;4.50;99.90
21787;DHT22;11055;50.870;4.316;2023-02-27T10:47:28;4.40;99.90
21787;DHT22;11055;50.870;4.316;2023-02-27T10:49:54;4.40;99.90
21787;DHT22;11055;50.870;4.316;2023-02-27T10:52:20;4.40;99.90
21787;DHT22;11055;50.870;4.316;2023-02-27T10:54:46;4.50;99.90
21787;DHT22;11055;50.870;4.316;2023-02-27T10:57:29;4.60;99.90
21787;DHT22;11055;50.870;4.316;2023-02-27T11:00:00;4.60;99.90
21787;DHT22;11055;50.870;4.316;2023-02-27T11:02:41;4.70;99.90
21787;DHT22;11055;50.870;4.316;2023-02-27T11:05:27;4.70;99.90
21787;DHT22;11055;50.870;4.316;2023-02-27T11:07:56;4.70;99.90
21787;DHT22;11055;50.870;4.316;2023-02-27T11:10:34;4.80;99.90
21787;DHT22;11055;50.870;4.316;2023-02-27T11:13:19;4.90;99.90
21787;DHT22;11055;50.870;4.316;2023-02-27T11:16:19;4.90;99.90
21787;DHT22;11055;50.870;4.316;2023-02-27T11:18:50;5.00;99.90
21787;DHT22;11055;50.870;4.316;2023-02-27T11:21:18;5.00;99.90
21787;DHT22;11055;50.870;4.316;2023-02-27T11:23:57;5.10;99.90
21787;DHT22;11055;50.870;4.316;2023-02-27T11:26:38;5.20;99.90
21787;DHT22;11055;50.870;4.316;2023-02-27T11:31:32;5.30;99.90
21787;DHT22;11055;50.870;4.316;2023-02-27T11:33:58;5.40;99.90
21787;DHT22;11055;50.870;4.316;2023-02-27T11:36:47;5.50;99.90
21787;DHT22;11055;50.870;4.316;2023-02-27T11:39:33;5.60;99.90
21787;DHT22;11055;50.870;4.316;2023-02-27T11:42:15;5.60;99.90
21787;DHT22;11055;50.870;4.316;2023-02-27T11:44:52;5.60;99.90
21787;DHT22;11055;50.870;4.316;2023-02-27T11:47:22;5.80;99.90
21787;DHT22;11055;50.870;4.316;2023-02-27T11:52:48;6.00;99.90
21787;DHT22;11055;50.870;4.316;2023-02-27T11:55:17;5.80;99.90
21787;DHT22;11055;50.870;4.316;2023-02-27T11:57:49;5.50;99.90
21787;DHT22;11055;50.870;4.316;2023-02-27T12:00:22;5.50;99.90
21787;DHT22;11055;50.870;4.316;2023-02-27T12:05:28;5.70;99.90
21787;DHT22;11055;50.870;4.316;2023-02-27T12:08:00;5.90;99.90
21787;DHT22;11055;50.870;4.316;2023-02-27T12:10:37;5.80;99.90
21787;DHT22;11055;50.870;4.316;2023-02-27T12:13:13;5.80;99.90
21787;DHT22;11055;50.870;4.316;2023-02-27T12:15:47;5.70;99.90
21787;DHT22;11055;50.870;4.316;2023-02-27T12:18:25;5.90;99.90
21787;DHT22;11055;50.870;4.316;2023-02-27T12:21:04;6.20;99.90
21787;DHT22;11055;50.870;4.316;2023-02-27T12:32:18;9.30;98.60
21787;DHT22;11055;50.870;4.316;2023-02-27T12:34:42;12.00;90.40
21787;DHT22;11055;50.870;4.316;2023-02-27T12:37:11;16.00;67.40
21787;DHT22;11055;50.870;4.316;2023-02-27T12:39:39;18.50;55.10
21787;DHT22;11055;50.870;4.316;2023-02-27T12:45:07;23.60;40.60
21787;DHT22;11055;50.870;4.316;2023-02-27T12:50:18;24.50;32.80
21787;DHT22;11055;50.870;4.316;2023-02-27T12:55:46;28.60;29.10
21787;DHT22;11055;50.870;4.316;2023-02-27T12:58:36;27.00;27.20
21787;DHT22;11055;50.870;4.316;2023-02-27T13:03:55;27.10;26.90
21787;DHT22;11055;50.870;4.316;2023-02-27T13:06:25;27.30;27.20
21787;DHT22;11055;50.870;4.316;2023-02-27T13:17:03;30.10;24.70
21787;DHT22;11055;50.870;4.316;2023-02-27T13:19:45;31.20;24.10
21787;DHT22;11055;50.870;4.316;2023-02-27T13:24:50;28.20;24.50
21787;DHT22;11055;50.870;4.316;2023-02-27T13:27:21;28.80;24.80
21787;DHT22;11055;50.870;4.316;2023-02-27T13:30:12;27.10;25.20
21787;DHT22;11055;50.870;4.316;2023-02-27T13:35:40;28.80;25.60
21787;DHT22;11055;50.870;4.316;2023-02-27T13:38:39;30.80;23.90
21787;DHT22;11055;50.870;4.316;2023-02-27T13:43:57;30.80;23.50
21787;DHT22;11055;50.870;4.316;2023-02-27T13:48:52;29.70;23.20
21787;DHT22;11055;50.870;4.316;2023-02-27T13:59:27;28.00;24.40
21787;DHT22;11055;50.870;4.316;2023-02-27T14:04:46;27.50;23.90
21787;DHT22;11055;50.870;4.316;2023-02-27T14:07:16;29.10;23.80
21787;DHT22;11055;50.870;4.316;2023-02-27T14:09:47;27.90;23.00
21787;DHT22;11055;50.870;4.316;2023-02-27T14:12:29;26.50;25.10
21787;DHT22;11055;50.870;4.316;2023-02-27T14:14:56;25.00;25.30
21787;DHT22;11055;50.870;4.316;2023-02-27T14:20:04;23.00;27.50
21787;DHT22;11055;50.870;4.316;2023-02-27T14:22:37;22.60;27.30
21787;DHT22;11055;50.870;4.316;2023-02-27T14:25:25;22.30;28.60
21787;DHT22;11055;50.870;4.316;2023-02-27T14:27:56;22.00;28.70
21787;DHT22;11055;50.870;4.316;2023-02-27T14:30:34;20.90;29.20
21787;DHT22;11055;50.870;4.316;2023-02-27T14:33:22;18.80;31.80
21787;DHT22;11055;50.870;4.316;2023-02-27T14:36:02;18.10;33.70
21787;DHT22;11055;50.870;4.316;2023-02-27T14:38:31;16.70;35.90
21787;DHT22;11055;50.870;4.316;2023-02-27T14:44:18;12.60;43.20
21787;DHT22;11055;50.870;4.316;2023-02-27T14:46:44;11.80;46.30
21787;DHT22;11055;50.870;4.316;2023-02-27T14:49:20;11.00;47.50
21787;DHT22;11055;50.870;4.316;2023-02-27T14:51:47;10.70;48.30
21787;DHT22;11055;50.870;4.316;2023-02-27T14:54:18;10.30;49.40
21787;DHT22;11055;50.870;4.316;2023-02-27T14:56:58;9.60;51.80
21787;DHT22;11055;50.870;4.316;2023-02-27T15:01:56;9.30;52.70
21787;DHT22;11055;50.870;4.316;2023-02-27T15:04:25;8.90;53.20
21787;DHT22;11055;50.870;4.316;2023-02-27T15:06:55;8.40;54.00
21787;DHT22;11055;50.870;4.316;2023-02-27T15:09:34;8.10;55.40
21787;DHT22;11055;50.870;4.316;2023-02-27T15:12:01;7.80;56.70
21787;DHT22;11055;50.870;4.316;2023-02-27T15:14:33;7.70;57.70
21787;DHT22;11055;50.870;4.316;2023-02-27T15:17:00;7.80;58.40
21787;DHT22;11055;50.870;4.316;2023-02-27T15:19:28;7.80;58.70
21787;DHT22;11055;50.870;4.316;2023-02-27T15:22:01;7.70;59.80
21787;DHT22;11055;50.870;4.316;2023-02-27T15:24:29;7.80;61.50
21787;DHT22;11055;50.870;4.316;2023-02-27T15:27:09;7.80;60.40
21787;DHT22;11055;50.870;4.316;2023-02-27T15:29:39;7.70;60.60
21787;DHT22;11055;50.870;4.316;2023-02-27T15:32:06;7.70;61.20
21787;DHT22;11055;50.870;4.316;2023-02-27T15:34:41;7.70;60.70
21787;DHT22;11055;50.870;4.316;2023-02-27T15:37:09;7.60;61.80
21787;DHT22;11055;50.870;4.316;2023-02-27T15:39:39;7.50;63.20
21787;DHT22;11055;50.870;4.316;2023-02-27T15:42:05;7.40;64.00
21787;DHT22;11055;50.870;4.316;2023-02-27T15:44:43;7.50;65.10
21787;DHT22;11055;50.870;4.316;2023-02-27T15:47:14;7.70;64.70
21787;DHT22;11055;50.870;4.316;2023-02-27T15:49:42;7.90;64.60
21787;DHT22;11055;50.870;4.316;2023-02-27T15:52:20;8.10;64.10
21787;DHT22;11055;50.870;4.316;2023-02-27T15:54:58;7.80;63.90
21787;DHT22;11055;50.870;4.316;2023-02-27T15:57:24;7.70;65.20
21787;DHT22;11055;50.870;4.316;2023-02-27T15:59:51;7.80;65.60
21787;DHT22;11055;50.870;4.316;2023-02-27T16:02:22;7.80;65.10
21787;DHT22;11055;50.870;4.316;2023-02-27T16:04:50;7.60;65.80
21787;DHT22;11055;50.870;4.316;2023-02-27T16:07:20;7.40;67.10
21787;DHT22;11055;50.870;4.316;2023-02-27T16:09:55;7.20;68.60
21787;DHT22;11055;50.870;4.316;2023-02-27T16:12:35;7.20;70.50
21787;DHT22;11055;50.870;4.316;2023-02-27T16:20:45;7.50;71.60
21787;DHT22;11055;50.870;4.316;2023-02-27T16:23:28;7.50;72.10
21787;DHT22;11055;50.870;4.316;2023-02-27T16:26:03;7.60;72.10
21787;DHT22;11055;50.870;4.316;2023-02-27T16:28:31;7.60;71.30
21787;DHT22;11055;50.870;4.316;2023-02-27T16:30:57;7.50;71.60
21787;DHT22;11055;50.870;4.316;2023-02-27T16:33:23;7.50;72.30
21787;DHT22;11055;50.870;4.316;2023-02-27T16:36:21;7.40;72.70
21787;DHT22;11055;50.870;4.316;2023-02-27T16:38:47;7.40;75.20
21787;DHT22;11055;50.870;4.316;2023-02-27T16:41:14;7.20;75.20
21787;DHT22;11055;50.870;4.316;2023-02-27T16:43:42;7.10;76.70
21787;DHT22;11055;50.870;4.316;2023-02-27T16:46:08;7.00;78.40
21787;DHT22;11055;50.870;4.316;2023-02-27T16:48:35;7.20;77.90
21787;DHT22;11055;50.870;4.316;2023-02-27T16:51:01;7.20;77.80
21787;DHT22;11055;50.870;4.316;2023-02-27T16:53:26;7.10;77.90
21787;DHT22;11055;50.870;4.316;2023-02-27T16:55:52;7.00;77.70
21787;DHT22;11055;50.870;4.316;2023-02-27T16:58:19;7.00;78.80
21787;DHT22;11055;50.870;4.316;2023-02-27T17:00:46;6.90;79.00
21787;DHT22;11055;50.870;4.316;2023-02-27T17:03:11;6.70;79.90
21787;DHT22;11055;50.870;4.316;2023-02-27T17:05:38;6.60;80.80
21787;DHT22;11055;50.870;4.316;2023-02-27T17:08:05;6.50;82.80
21787;DHT22;11055;50.870;4.316;2023-02-27T17:10:31;6.40;84.30
21787;DHT22;11055;50.870;4.316;2023-02-27T17:12:57;6.30;85.00
21787;DHT22;11055;50.870;4.316;2023-02-27T17:15:23;6.30;86.70
21787;DHT22;11055;50.870;4.316;2023-02-27T17:17:52;6.30;88.00
21787;DHT22;11055;50.870;4.316;2023-02-27T17:20:18;6.30;88.50
21787;DHT22;11055;50.870;4.316;2023-02-27T17:22:45;6.30;88.80
21787;DHT22;11055;50.870;4.316;2023-02-27T17:25:12;6.30;88.70
21787;DHT22;11055;50.870;4.316;2023-02-27T17:27:38;6.20;90.10
21787;DHT22;11055;50.870;4.316;2023-02-27T17:30:04;6.20;90.40
21787;DHT22;11055;50.870;4.316;2023-02-27T17:32:30;6.20;91.00
21787;DHT22;11055;50.870;4.316;2023-02-27T17:34:56;6.10;91.30
21787;DHT22;11055;50.870;4.316;2023-02-27T17:37:22;6.10;92.30
21787;DHT22;11055;50.870;4.316;2023-02-27T17:39:48;6.10;92.10
21787;DHT22;11055;50.870;4.316;2023-02-27T17:42:14;6.10;92.40
21787;DHT22;11055;50.870;4.316;2023-02-27T17:44:44;6.00;92.20
21787;DHT22;11055;50.870;4.316;2023-02-27T17:47:10;6.00;92.60
21787;DHT22;11055;50.870;4.316;2023-02-27T17:49:36;6.00;93.00
21787;DHT22;11055;50.870;4.316;2023-02-27T17:52:02;5.90;93.50
21787;DHT22;11055;50.870;4.316;2023-02-27T17:54:27;6.00;93.80
21787;DHT22;11055;50.870;4.316;2023-02-27T17:56:53;6.00;93.90
21787;DHT22;11055;50.870;4.316;2023-02-27T17:59:19;6.20;93.70
21787;DHT22;11055;50.870;4.316;2023-02-27T18:01:44;6.10;93.90
21787;DHT22;11055;50.870;4.316;2023-02-27T18:04:10;6.20;93.60
21787;DHT22;11055;50.870;4.316;2023-02-27T18:06:37;6.20;93.90
21787;DHT22;11055;50.870;4.316;2023-02-27T18:09:03;6.10;94.30
21787;DHT22;11055;50.870;4.316;2023-02-27T18:11:29;6.10;94.80
21787;DHT22;11055;50.870;4.316;2023-02-27T18:13:55;6.20;94.80
21787;DHT22;11055;50.870;4.316;2023-02-27T18:16:21;6.20;95.00
21787;DHT22;11055;50.870;4.316;2023-02-27T18:18:47;6.10;95.40
21787;DHT22;11055;50.870;4.316;2023-02-27T18:21:15;6.00;95.90
21787;DHT22;11055;50.870;4.316;2023-02-27T18:23:42;6.10;96.20
21787;DHT22;11055;50.870;4.316;2023-02-27T18:26:12;6.30;96.10
21787;DHT22;11055;50.870;4.316;2023-02-27T18:28:38;6.40;95.70
21787;DHT22;11055;50.870;4.316;2023-02-27T18:31:04;6.40;95.70
21787;DHT22;11055;50.870;4.316;2023-02-27T18:33:29;6.60;95.60